createdAt,value
2022-09-21T00:00:40.246Z,9.50
2022-09-21T00:01:40.995Z,9.00
2022-09-21T00:02:41.600Z,10.70
2022-09-21T00:03:42.163Z,9.30
2022-09-21T00:04:42.731Z,9.40
2022-09-21T00:05:43.295Z,9.80
2022-09-21T00:06:43.921Z,10.10
2022-09-21T00:07:44.500Z,10.30
2022-09-21T00:08:45.059Z,9.50
2022-09-21T00:09:45.616Z,9.30
2022-09-21T00:10:46.186Z,10.00
2022-09-21T00:11:46.789Z,9.50
2022-09-21T00:12:47.367Z,9.60
2022-09-21T00:13:47.930Z,9.40
2022-09-21T00:14:48.484Z,10.30
2022-09-21T00:15:49.044Z,9.10
2022-09-21T00:16:49.804Z,9.50
2022-09-21T00:17:50.400Z,9.80
2022-09-21T00:18:50.967Z,9.10
2022-09-21T00:19:51.529Z,9.70
2022-09-21T00:20:52.092Z,10.60
2022-09-21T00:21:52.783Z,8.90
2022-09-21T00:22:53.344Z,10.70
2022-09-21T00:23:53.911Z,9.30
2022-09-21T00:24:54.476Z,9.80
2022-09-21T00:25:55.029Z,9.40
2022-09-21T00:26:55.685Z,9.80
2022-09-21T00:27:56.268Z,10.00
2022-09-21T00:28:56.917Z,9.30
2022-09-21T00:29:57.536Z,8.90
2022-09-21T00:30:58.092Z,9.70
2022-09-21T00:31:58.737Z,9.80
2022-09-21T00:32:59.317Z,9.90
2022-09-21T00:33:59.876Z,10.60
2022-09-21T00:35:00.449Z,9.80
2022-09-21T00:36:01.005Z,9.90
2022-09-21T00:37:01.661Z,9.10
2022-09-21T00:38:02.215Z,9.50
2022-09-21T00:39:02.784Z,9.50
2022-09-21T00:40:03.417Z,9.30
2022-09-21T00:41:04.005Z,9.20
2022-09-21T00:42:04.604Z,11.00
2022-09-21T00:43:05.252Z,9.60
2022-09-21T00:44:05.810Z,9.80
2022-09-21T00:45:06.378Z,9.10
2022-09-21T00:46:07.031Z,10.60
2022-09-21T00:47:07.765Z,9.50
2022-09-21T00:48:08.331Z,9.40
2022-09-21T00:49:08.935Z,9.40
2022-09-21T00:50:09.575Z,9.40
2022-09-21T00:51:10.148Z,10.50
2022-09-21T00:52:10.996Z,8.80
2022-09-21T00:53:11.554Z,8.40
2022-09-21T00:54:12.116Z,8.20
2022-09-21T00:55:12.674Z,10.50
2022-09-21T00:56:13.236Z,8.90
2022-09-21T00:57:13.835Z,9.20
2022-09-21T00:58:14.419Z,9.30
2022-09-21T00:59:14.977Z,9.00
2022-09-21T01:00:15.542Z,9.50
2022-09-21T01:01:16.228Z,9.80
2022-09-21T01:02:16.996Z,9.00
2022-09-21T01:03:17.575Z,8.80
2022-09-21T01:04:18.146Z,7.90
2022-09-21T01:05:18.715Z,8.70
2022-09-21T01:06:19.282Z,8.40
2022-09-21T01:07:19.940Z,8.50
2022-09-21T01:08:20.496Z,8.60
2022-09-21T01:09:21.057Z,8.40
2022-09-21T01:10:21.617Z,8.30
2022-09-21T01:11:22.176Z,9.70
2022-09-21T01:12:22.781Z,8.50
2022-09-21T01:13:23.371Z,7.60
2022-09-21T01:14:23.934Z,8.10
2022-09-21T01:15:24.499Z,8.70
2022-09-21T01:16:25.119Z,7.80
2022-09-21T01:17:25.794Z,8.50
2022-09-21T01:18:26.357Z,9.30
2022-09-21T01:19:26.916Z,8.40
2022-09-21T01:20:27.474Z,9.80
2022-09-21T01:21:28.262Z,8.90
2022-09-21T01:22:29.093Z,8.10
2022-09-21T01:23:29.654Z,8.40
2022-09-21T01:24:30.220Z,7.40
2022-09-21T01:25:30.779Z,7.50
2022-09-21T01:26:31.337Z,9.40
2022-09-21T01:27:31.987Z,8.00
2022-09-21T01:28:32.580Z,9.00
2022-09-21T01:29:33.149Z,8.30
2022-09-21T01:30:33.720Z,7.90
2022-09-21T01:31:34.318Z,8.10
2022-09-21T01:32:34.924Z,8.10
2022-09-21T01:33:35.498Z,8.10
2022-09-21T01:34:36.061Z,8.60
2022-09-21T01:35:36.627Z,7.30
2022-09-21T01:36:37.191Z,8.40
2022-09-21T01:37:37.820Z,8.30
2022-09-21T01:38:38.384Z,7.70
2022-09-21T01:39:38.942Z,7.50
2022-09-21T01:40:39.551Z,8.00
2022-09-21T01:41:40.179Z,9.60
2022-09-21T01:42:40.805Z,7.90
2022-09-21T01:43:41.393Z,7.40
2022-09-21T01:44:41.952Z,8.20
2022-09-21T01:45:42.592Z,7.30
2022-09-21T01:46:43.212Z,7.80
2022-09-21T01:47:43.814Z,8.00
2022-09-21T01:48:44.371Z,8.50
2022-09-21T01:49:44.929Z,9.20
2022-09-21T01:50:45.490Z,8.20
2022-09-21T01:51:46.044Z,7.70
2022-09-21T01:52:46.690Z,7.70
2022-09-21T01:53:47.250Z,7.70
2022-09-21T01:54:47.805Z,8.50
2022-09-21T01:55:48.367Z,8.20
2022-09-21T01:56:48.929Z,7.90
2022-09-21T01:57:49.530Z,8.80
2022-09-21T01:58:50.119Z,9.10
2022-09-21T01:59:50.678Z,7.80
2022-09-21T02:00:51.293Z,8.80
2022-09-21T02:01:52.056Z,8.70
2022-09-21T02:02:52.685Z,8.40
2022-09-21T02:03:53.244Z,8.30
2022-09-21T02:04:53.804Z,8.40
2022-09-21T02:05:54.362Z,7.50
2022-09-21T02:06:54.925Z,8.70
2022-09-21T02:07:55.584Z,9.20
2022-09-21T02:08:56.147Z,7.90
2022-09-21T02:09:56.700Z,8.10
2022-09-21T02:10:57.279Z,7.90
2022-09-21T02:11:57.842Z,8.10
2022-09-21T02:12:58.434Z,8.00
2022-09-21T02:13:59.012Z,7.90
2022-09-21T02:14:59.573Z,8.50
2022-09-21T02:16:00.166Z,7.90
2022-09-21T02:17:00.775Z,7.50
2022-09-21T02:18:01.423Z,7.70
2022-09-21T02:19:01.989Z,8.80
2022-09-21T02:20:02.566Z,8.10
2022-09-21T02:21:03.138Z,8.20
2022-09-21T02:22:03.698Z,8.80
2022-09-21T02:23:04.332Z,9.10
2022-09-21T02:24:04.885Z,8.20
2022-09-21T02:25:05.443Z,8.40
2022-09-21T02:26:06.009Z,7.70
2022-09-21T02:27:06.566Z,8.30
2022-09-21T02:28:07.345Z,8.00
2022-09-21T02:29:08.013Z,8.00
2022-09-21T02:30:08.568Z,7.70
2022-09-21T02:31:09.157Z,8.20
2022-09-21T02:32:09.731Z,9.10
2022-09-21T02:33:10.362Z,9.10
2022-09-21T02:34:10.932Z,8.40
2022-09-21T02:35:11.491Z,8.10
2022-09-21T02:36:12.061Z,6.80
2022-09-21T02:37:12.623Z,7.30
2022-09-21T02:38:13.289Z,7.80
2022-09-21T02:39:13.844Z,8.60
2022-09-21T02:40:14.477Z,7.10
2022-09-21T02:41:15.076Z,7.90
2022-09-21T02:42:15.632Z,7.60
2022-09-21T02:43:16.235Z,7.70
2022-09-21T02:44:16.820Z,6.80
2022-09-21T02:45:17.377Z,7.60
2022-09-21T02:46:17.955Z,8.00
2022-09-21T02:47:18.556Z,8.00
2022-09-21T02:48:19.148Z,7.50
2022-09-21T02:49:19.720Z,6.70
2022-09-21T02:50:20.285Z,6.60
2022-09-21T02:51:20.841Z,7.20
2022-09-21T02:52:21.400Z,8.30
2022-09-21T02:53:22.030Z,7.50
2022-09-21T02:54:22.614Z,7.20
2022-09-21T02:55:23.186Z,7.20
2022-09-21T02:56:23.754Z,8.20
2022-09-21T02:57:24.332Z,7.80
2022-09-21T02:58:24.927Z,7.20
2022-09-21T02:59:25.514Z,7.80
2022-09-21T03:00:26.114Z,7.80
2022-09-21T03:01:26.736Z,8.40
2022-09-21T03:02:27.324Z,8.00
2022-09-21T03:03:27.922Z,6.90
2022-09-21T03:04:28.481Z,7.20
2022-09-21T03:05:29.045Z,8.00
2022-09-21T03:06:29.607Z,9.80
2022-09-21T03:07:30.172Z,8.00
2022-09-21T03:08:30.794Z,7.80
2022-09-21T03:09:31.356Z,8.30
2022-09-21T03:10:31.925Z,7.30
2022-09-21T03:11:32.484Z,7.50
2022-09-21T03:12:33.039Z,8.30
2022-09-21T03:13:33.638Z,8.00
2022-09-21T03:14:34.280Z,7.90
2022-09-21T03:15:34.913Z,8.40
2022-09-21T03:16:35.510Z,7.90
2022-09-21T03:17:36.067Z,8.10
2022-09-21T03:18:36.703Z,10.60
2022-09-21T03:19:37.264Z,7.40
2022-09-21T03:20:37.829Z,7.30
2022-09-21T03:21:43.714Z,8.40
2022-09-21T03:22:39.300Z,8.40
2022-09-21T03:23:39.954Z,8.10
2022-09-21T03:24:40.521Z,7.80
2022-09-21T03:25:41.083Z,7.20
2022-09-21T03:26:41.648Z,8.50
2022-09-21T03:27:42.214Z,8.00
2022-09-21T03:28:42.864Z,7.30
2022-09-21T03:29:43.452Z,7.40
2022-09-21T03:30:44.202Z,8.40
2022-09-21T03:31:44.905Z,9.40
2022-09-21T03:32:45.475Z,7.40
2022-09-21T03:33:46.078Z,7.30
2022-09-21T03:34:46.643Z,8.10
2022-09-21T03:35:47.205Z,7.30
2022-09-21T03:36:47.764Z,8.00
2022-09-21T03:37:48.332Z,8.00
2022-09-21T03:38:49.000Z,11.00
2022-09-21T03:39:49.556Z,8.00
2022-09-21T03:40:50.118Z,8.40
2022-09-21T03:41:50.684Z,7.60
2022-09-21T03:42:51.244Z,8.20
2022-09-21T03:43:51.840Z,9.10
2022-09-21T03:44:52.419Z,7.10
2022-09-21T03:45:52.946Z,7.20
2022-09-21T03:46:53.462Z,9.20
2022-09-21T03:47:54.031Z,8.00
2022-09-21T03:48:54.622Z,8.00
2022-09-21T03:49:55.141Z,8.10
2022-09-21T03:50:55.695Z,7.50
2022-09-21T03:51:56.252Z,7.70
2022-09-21T03:52:56.761Z,7.90
2022-09-21T03:53:57.344Z,7.50
2022-09-21T03:54:57.851Z,8.20
2022-09-21T03:55:58.356Z,7.00
2022-09-21T03:56:58.863Z,8.30
2022-09-21T03:57:59.374Z,8.50
2022-09-21T03:58:59.922Z,7.40
2022-09-21T04:00:00.491Z,7.40
2022-09-21T04:01:01.005Z,7.20
2022-09-21T04:02:01.521Z,7.60
2022-09-21T04:03:02.173Z,8.50
2022-09-21T04:04:02.785Z,6.90
2022-09-21T04:05:03.295Z,8.10
2022-09-21T04:06:03.798Z,8.30
2022-09-21T04:07:04.323Z,8.00
2022-09-21T04:08:04.835Z,6.90
2022-09-21T04:09:05.449Z,7.60
2022-09-21T04:10:05.958Z,8.80
2022-09-21T04:11:06.469Z,8.30
2022-09-21T04:12:06.977Z,7.60
2022-09-21T04:13:07.486Z,8.00
2022-09-21T04:14:08.029Z,8.20
2022-09-21T04:15:08.618Z,7.60
2022-09-21T04:16:09.178Z,7.40
2022-09-21T04:17:09.727Z,7.80
2022-09-21T04:18:10.235Z,7.90
2022-09-21T04:19:10.829Z,7.90
2022-09-21T04:20:11.340Z,9.10
2022-09-21T04:21:11.846Z,9.00
2022-09-21T04:22:12.350Z,8.20
2022-09-21T04:23:12.860Z,7.70
2022-09-21T04:24:13.441Z,7.70
2022-09-21T04:25:13.952Z,7.90
2022-09-21T04:26:14.476Z,8.50
2022-09-21T04:27:16.821Z,7.50
2022-09-21T04:28:15.821Z,8.80
2022-09-21T04:29:16.419Z,8.50
2022-09-21T04:30:16.972Z,8.50
2022-09-21T04:31:17.530Z,7.20
2022-09-21T04:32:18.063Z,8.30
2022-09-21T04:33:18.569Z,8.30
2022-09-21T04:34:19.114Z,7.60
2022-09-21T04:35:19.634Z,7.90
2022-09-21T04:36:20.143Z,8.00
2022-09-21T04:37:20.652Z,8.60
2022-09-21T04:38:21.170Z,8.40
2022-09-21T04:39:21.796Z,9.30
2022-09-21T04:40:22.374Z,7.20
2022-09-21T04:41:27.408Z,7.90
2022-09-21T04:42:31.859Z,8.20
2022-09-21T04:43:25.960Z,7.70
2022-09-21T04:44:29.850Z,8.50
2022-09-21T04:45:28.703Z,8.30
2022-09-21T04:46:27.006Z,8.60
2022-09-21T04:47:28.098Z,7.60
2022-09-21T04:48:33.762Z,9.30
2022-09-21T04:49:29.349Z,8.30
2022-09-21T04:50:32.563Z,8.40
2022-09-21T04:51:31.397Z,8.40
2022-09-21T04:52:31.492Z,9.10
2022-09-21T04:53:32.791Z,7.90
2022-09-21T04:54:33.861Z,9.20
2022-09-21T04:55:36.893Z,8.90
2022-09-21T04:56:37.584Z,9.40
2022-09-21T04:57:36.231Z,8.90
2022-09-21T04:58:39.482Z,9.20
2022-09-21T04:59:45.908Z,10.20
2022-09-21T05:00:38.066Z,10.50
2022-09-21T05:01:40.025Z,10.90
2022-09-21T05:02:40.093Z,12.30
2022-09-21T05:03:40.015Z,12.50
2022-09-21T05:04:44.612Z,13.30
2022-09-21T05:05:41.528Z,13.70
2022-09-21T05:06:42.173Z,16.40
2022-09-21T05:07:43.194Z,14.60
2022-09-21T05:08:43.582Z,15.00
2022-09-21T05:09:44.149Z,17.20
2022-09-21T05:10:48.544Z,17.70
2022-09-21T05:11:55.152Z,18.30
2022-09-21T05:12:55.253Z,16.90
2022-09-21T05:13:47.253Z,15.90
2022-09-21T05:14:52.428Z,15.80
2022-09-21T05:15:48.493Z,15.70
2022-09-21T05:16:49.700Z,16.00
2022-09-21T05:17:50.983Z,16.00
2022-09-21T05:18:59.926Z,16.20
2022-09-21T05:19:54.715Z,15.70
2022-09-21T05:20:56.098Z,16.60
2022-09-21T05:22:25.772Z,15.50
2022-09-21T05:22:54.426Z,17.10
2022-09-21T05:23:54.803Z,18.20
2022-09-21T05:24:55.750Z,17.10
2022-09-21T05:25:56.253Z,16.90
2022-09-21T05:26:57.398Z,17.10
2022-09-21T05:28:06.481Z,17.40
2022-09-21T05:28:58.599Z,16.90
2022-09-21T05:30:02.770Z,17.50
2022-09-21T05:31:17.213Z,18.60
2022-09-21T05:32:06.113Z,17.00
2022-09-21T05:33:01.459Z,17.50
2022-09-21T05:34:01.967Z,18.70
2022-09-21T05:35:02.515Z,17.90
2022-09-21T05:36:03.025Z,17.10
2022-09-21T05:37:03.570Z,16.90
2022-09-21T05:38:04.081Z,16.60
2022-09-21T05:39:04.587Z,16.90
2022-09-21T05:40:05.216Z,17.90
2022-09-21T05:41:05.737Z,16.40
2022-09-21T05:42:06.240Z,17.80
2022-09-21T05:43:06.747Z,16.60
2022-09-21T05:44:07.256Z,18.80
2022-09-21T05:45:07.799Z,17.60
2022-09-21T05:46:08.377Z,18.30
2022-09-21T05:47:08.898Z,17.70
2022-09-21T05:48:09.404Z,17.00
2022-09-21T05:49:09.908Z,16.60
2022-09-21T05:50:10.444Z,17.90
2022-09-21T05:51:10.954Z,16.50
2022-09-21T05:52:11.461Z,16.50
2022-09-21T05:53:11.965Z,16.30
2022-09-21T05:54:12.472Z,15.70
2022-09-21T05:55:13.019Z,16.20
2022-09-21T05:56:13.526Z,16.10
2022-09-21T05:57:14.037Z,15.50
2022-09-21T05:58:15.882Z,16.10
2022-09-21T05:59:15.543Z,15.50
2022-09-21T06:00:16.381Z,15.30
2022-09-21T06:01:17.050Z,15.30
2022-09-21T06:02:17.620Z,14.80
2022-09-21T06:03:18.144Z,16.40
2022-09-21T06:04:18.649Z,15.70
2022-09-21T06:05:19.193Z,15.40
2022-09-21T06:06:19.697Z,17.20
2022-09-21T06:07:20.210Z,15.00
2022-09-21T06:08:22.198Z,15.70
2022-09-21T06:09:34.616Z,15.70
2022-09-21T06:10:22.236Z,15.60
2022-09-21T06:11:26.463Z,15.60
2022-09-21T06:12:27.178Z,15.60
2022-09-21T06:13:25.802Z,16.80
2022-09-21T06:14:37.631Z,15.60
2022-09-21T06:15:32.458Z,15.80
2022-09-21T06:16:27.202Z,15.70
2022-09-21T06:17:29.182Z,15.10
2022-09-21T06:18:27.689Z,14.60
2022-09-21T06:19:28.254Z,15.80
2022-09-21T06:20:28.840Z,15.00
2022-09-21T06:21:29.344Z,15.30
2022-09-21T06:22:29.853Z,14.40
2022-09-21T06:23:30.379Z,15.40
2022-09-21T06:24:30.885Z,16.10
2022-09-21T06:25:31.425Z,15.20
2022-09-21T06:26:31.936Z,15.20
2022-09-21T06:27:32.443Z,15.40
2022-09-21T06:28:32.961Z,14.30
2022-09-21T06:29:33.463Z,14.50
2022-09-21T06:30:34.107Z,14.60
2022-09-21T06:31:34.654Z,14.80
2022-09-21T06:32:35.381Z,15.20
2022-09-21T06:33:35.994Z,14.80
2022-09-21T06:34:36.914Z,15.50
2022-09-21T06:35:37.595Z,14.60
2022-09-21T06:36:38.105Z,15.90
2022-09-21T06:37:38.606Z,14.80
2022-09-21T06:38:44.004Z,15.90
2022-09-21T06:39:40.035Z,15.20
2022-09-21T06:40:40.625Z,16.20
2022-09-21T06:41:41.157Z,17.30
2022-09-21T06:42:41.657Z,15.90
2022-09-21T06:43:42.156Z,16.20
2022-09-21T06:44:42.664Z,16.50
2022-09-21T06:45:43.231Z,16.20
2022-09-21T06:46:43.796Z,17.40
2022-09-21T06:47:44.306Z,16.40
2022-09-21T06:48:44.911Z,16.20
2022-09-21T06:50:22.612Z,16.30
2022-09-21T06:50:46.392Z,16.80
2022-09-21T06:51:46.923Z,17.00
2022-09-21T06:52:47.430Z,17.40
2022-09-21T06:53:49.127Z,17.40
2022-09-21T06:54:50.911Z,16.90
2022-09-21T06:55:49.469Z,17.10
2022-09-21T06:56:50.244Z,16.00
2022-09-21T06:57:50.976Z,16.00
2022-09-21T06:58:51.688Z,16.20
2022-09-21T06:59:52.661Z,15.30
2022-09-21T07:00:53.646Z,16.40
2022-09-21T07:01:54.583Z,18.00
2022-09-21T07:02:55.018Z,17.40
2022-09-21T07:03:55.711Z,17.00
2022-09-21T07:04:56.293Z,16.60
2022-09-21T07:05:57.331Z,16.60
2022-09-21T07:07:04.790Z,16.90
2022-09-21T07:11:36.077Z,14.10
2022-09-21T07:12:41.212Z,15.70
2022-09-21T07:13:38.251Z,16.70
2022-09-21T07:14:38.763Z,17.20
2022-09-21T07:15:39.269Z,16.60
2022-09-21T07:16:40.286Z,15.60
2022-09-21T07:17:40.748Z,16.80
2022-09-21T07:18:44.449Z,17.30
2022-09-21T07:19:41.583Z,17.60
2022-09-21T07:20:42.100Z,17.40
2022-09-21T07:21:42.716Z,18.10
2022-09-21T07:22:43.233Z,19.20
2022-09-21T07:23:43.827Z,20.20
2022-09-21T07:24:44.340Z,19.60
2022-09-21T07:25:47.493Z,20.70
2022-09-21T07:27:13.441Z,21.40
2022-09-21T07:27:49.760Z,21.10
2022-09-21T07:28:48.997Z,21.10
2022-09-21T07:29:53.314Z,20.40
2022-09-21T07:30:48.376Z,20.30
2022-09-21T07:31:50.551Z,20.50
2022-09-21T07:32:49.853Z,21.50
2022-09-21T07:34:07.036Z,21.40
2022-09-21T07:34:52.229Z,21.00
2022-09-21T07:35:59.974Z,19.40
2022-09-21T07:36:53.013Z,19.00
2022-09-21T07:37:53.521Z,18.90
2022-09-21T07:38:54.055Z,18.50
2022-09-21T07:39:54.579Z,17.90
2022-09-21T07:40:55.092Z,17.00
2022-09-21T07:41:55.634Z,17.10
2022-09-21T07:42:56.148Z,17.00
2022-09-21T07:43:56.656Z,17.10
2022-09-21T07:45:04.000Z,18.60
2022-09-21T07:45:58.078Z,18.10
2022-09-21T07:46:58.654Z,17.60
2022-09-21T07:47:59.198Z,16.90
2022-09-21T07:48:59.717Z,17.00
2022-09-21T07:50:00.247Z,16.90
2022-09-21T07:51:01.428Z,16.60
2022-09-21T07:52:05.696Z,16.60
2022-09-21T07:53:02.249Z,17.50
2022-09-21T07:54:03.159Z,17.50
2022-09-21T07:55:03.429Z,17.50
2022-09-21T07:56:03.947Z,18.30
2022-09-21T07:57:07.436Z,17.50
2022-09-21T07:58:05.434Z,16.70
2022-09-21T07:59:05.954Z,16.40
2022-09-21T08:00:35.878Z,16.60
2022-09-21T08:01:21.228Z,16.30
2022-09-21T08:02:22.506Z,16.50
2022-09-21T08:03:12.511Z,17.20
2022-09-21T08:04:09.405Z,18.50
2022-09-21T08:05:10.005Z,18.20
2022-09-21T08:06:10.518Z,19.10
2022-09-21T08:07:11.061Z,18.40
2022-09-21T08:08:11.572Z,17.90
2022-09-21T08:09:12.089Z,17.80
2022-09-21T08:10:12.616Z,17.80
2022-09-21T08:11:13.120Z,16.90
2022-09-21T08:12:13.703Z,16.70
2022-09-21T08:13:14.220Z,17.60
2022-09-21T08:14:14.736Z,17.50
2022-09-21T08:15:30.919Z,16.30
2022-09-21T08:16:16.161Z,17.40
2022-09-21T08:17:16.750Z,17.70
2022-09-21T08:18:17.290Z,18.00
2022-09-21T08:19:17.808Z,18.50
2022-09-21T08:20:18.316Z,17.30
2022-09-21T08:21:18.840Z,18.30
2022-09-21T08:22:19.440Z,17.40
2022-09-21T08:23:19.955Z,18.20
2022-09-21T08:24:20.533Z,19.60
2022-09-21T08:25:21.039Z,19.10
2022-09-21T08:26:21.549Z,19.30
2022-09-21T08:27:24.035Z,19.50
2022-09-21T08:28:22.757Z,19.30
2022-09-21T08:29:23.264Z,19.50
2022-09-21T08:30:23.769Z,19.70
2022-09-21T08:31:24.635Z,18.30
2022-09-21T08:32:49.434Z,18.30
2022-09-21T08:33:29.414Z,18.20
2022-09-21T08:34:29.976Z,18.20
2022-09-21T08:35:27.842Z,17.80
2022-09-21T08:36:28.401Z,17.10
2022-09-21T08:37:29.293Z,17.50
2022-09-21T08:38:40.082Z,16.30
2022-09-21T08:39:30.308Z,16.30
2022-09-21T08:40:30.874Z,16.80
2022-09-21T08:41:31.449Z,17.20
2022-09-21T08:42:31.988Z,18.30
2022-09-21T08:43:32.541Z,17.50
2022-09-21T08:44:33.983Z,17.90
2022-09-21T08:45:43.298Z,17.20
2022-09-21T08:46:35.258Z,17.70
2022-09-21T08:47:35.869Z,16.30
2022-09-21T08:48:37.139Z,16.00
2022-09-21T08:49:38.413Z,16.70
2022-09-21T08:50:38.074Z,15.60
2022-09-21T08:51:45.420Z,16.10
2022-09-21T08:52:41.427Z,16.20
2022-09-21T08:53:40.996Z,15.40
2022-09-21T08:54:40.967Z,15.60
2022-09-21T08:55:41.473Z,15.90
2022-09-21T08:57:04.090Z,15.10
2022-09-21T08:57:42.879Z,15.00
2022-09-21T08:58:43.408Z,15.20
2022-09-21T08:59:43.920Z,14.60
2022-09-21T09:00:44.513Z,14.40
2022-09-21T09:01:45.109Z,14.50
2022-09-21T09:02:45.754Z,15.10
2022-09-21T09:03:46.288Z,15.10
2022-09-21T09:04:49.680Z,13.90
2022-09-21T09:05:48.393Z,14.80
2022-09-21T09:06:49.291Z,14.30
2022-09-21T09:07:52.412Z,14.20
2022-09-21T09:08:49.921Z,14.90
2022-09-21T09:09:50.436Z,14.00
2022-09-21T09:10:50.954Z,14.60
2022-09-21T09:11:51.465Z,14.70
2022-09-21T09:12:52.013Z,14.20
2022-09-21T09:14:00.083Z,14.40
2022-09-21T09:15:14.669Z,13.50
2022-09-21T09:15:54.179Z,14.60
2022-09-21T09:16:56.837Z,13.90
2022-09-21T09:17:55.374Z,14.50
2022-09-21T09:18:56.054Z,14.50
2022-09-21T09:19:56.602Z,14.40
2022-09-21T09:20:57.111Z,14.30
2022-09-21T09:21:57.618Z,14.10
2022-09-21T09:22:58.213Z,14.70
2022-09-21T09:23:58.729Z,14.70
2022-09-21T09:24:59.256Z,14.00
2022-09-21T09:25:59.776Z,14.80
2022-09-21T09:27:00.285Z,15.30
2022-09-21T09:28:00.841Z,15.10
2022-09-21T09:29:01.348Z,14.20
2022-09-21T09:30:03.536Z,14.80
2022-09-21T09:31:02.557Z,15.00
2022-09-21T09:32:03.114Z,14.10
2022-09-21T09:33:27.955Z,14.40
2022-09-21T09:35:05.249Z,14.40
2022-09-21T09:36:05.754Z,15.00
2022-09-21T09:37:06.267Z,15.20
2022-09-21T09:38:06.980Z,15.00
2022-09-21T09:39:07.606Z,15.00
2022-09-21T09:40:08.354Z,15.70
2022-09-21T09:41:08.907Z,15.00
2022-09-21T09:42:09.411Z,16.10
2022-09-21T09:43:09.949Z,14.50
2022-09-21T09:44:10.472Z,15.80
2022-09-21T09:45:11.151Z,15.50
2022-09-21T09:46:13.418Z,15.60
2022-09-21T09:47:13.683Z,15.10
2022-09-21T09:48:12.140Z,15.90
2022-09-21T09:49:13.651Z,16.00
2022-09-21T09:50:14.176Z,16.60
2022-09-21T09:51:14.697Z,17.10
2022-09-21T09:52:15.220Z,17.20
2022-09-21T09:53:16.466Z,16.70
2022-09-21T09:54:16.460Z,16.90
2022-09-21T09:55:16.963Z,16.50
2022-09-21T09:56:17.468Z,17.90
2022-09-21T09:57:18.153Z,18.80
2022-09-21T09:58:18.719Z,17.60
2022-09-21T09:59:19.235Z,17.90
2022-09-21T10:00:19.749Z,18.20
2022-09-21T10:01:20.403Z,19.50
2022-09-21T10:02:20.966Z,19.90
2022-09-21T10:03:21.504Z,19.40
2022-09-21T10:04:22.068Z,20.40
2022-09-21T10:05:22.634Z,20.00
2022-09-21T10:06:23.142Z,18.10
2022-09-21T10:07:23.649Z,20.70
2022-09-21T10:08:24.300Z,20.80
2022-09-21T10:09:24.809Z,22.20
2022-09-21T10:10:25.421Z,21.70
2022-09-21T10:11:25.944Z,22.70
2022-09-21T10:12:26.474Z,22.60
2022-09-21T10:13:27.017Z,24.80
2022-09-21T10:14:27.525Z,25.20
2022-09-21T10:15:28.035Z,26.20
2022-09-21T10:16:28.590Z,26.50
2022-09-21T10:17:29.125Z,27.90
2022-09-21T10:18:29.756Z,29.90
2022-09-21T10:19:30.265Z,31.60
2022-09-21T10:20:30.806Z,30.30
2022-09-21T10:21:31.318Z,31.20
2022-09-21T10:22:31.822Z,30.70
2022-09-21T10:23:32.414Z,33.40
2022-09-21T10:24:32.929Z,33.60
2022-09-21T10:25:40.313Z,34.80
2022-09-21T10:26:34.417Z,35.10
2022-09-21T10:27:34.924Z,31.60
2022-09-21T10:28:35.541Z,33.00
2022-09-21T10:29:36.046Z,34.10
2022-09-21T10:30:36.557Z,35.90
2022-09-21T10:31:37.258Z,35.50
2022-09-21T10:32:37.817Z,33.20
2022-09-21T10:33:38.421Z,34.00
2022-09-21T10:34:38.925Z,34.80
2022-09-21T10:35:39.464Z,36.50
2022-09-21T10:36:39.972Z,36.20
2022-09-21T10:37:40.482Z,36.00
2022-09-21T10:38:41.026Z,35.80
2022-09-21T10:39:41.565Z,33.90
2022-09-21T10:40:42.193Z,35.30
2022-09-21T10:41:42.801Z,37.40
2022-09-21T10:42:43.317Z,39.50
2022-09-21T10:43:44.056Z,39.50
2022-09-21T10:44:44.621Z,39.80
2022-09-21T10:45:45.127Z,41.60
2022-09-21T10:46:45.741Z,43.20
2022-09-21T10:47:46.392Z,40.40
2022-09-21T10:48:46.937Z,42.20
2022-09-21T10:49:47.450Z,44.00
2022-09-21T10:50:47.993Z,43.80
2022-09-21T10:51:48.497Z,43.60
2022-09-21T10:52:49.003Z,44.20
2022-09-21T10:53:53.746Z,44.90
2022-09-21T10:54:50.405Z,45.50
2022-09-21T10:56:04.780Z,45.20
2022-09-21T10:56:51.830Z,43.80
2022-09-21T10:57:52.343Z,47.00
2022-09-21T10:58:52.898Z,50.10
2022-09-21T10:59:53.409Z,46.60
2022-09-21T11:00:53.916Z,46.20
2022-09-21T11:01:54.535Z,48.70
2022-09-21T11:02:55.206Z,48.80
2022-09-21T11:03:55.826Z,49.70
2022-09-21T11:04:56.536Z,51.50
2022-09-21T11:05:57.282Z,49.50
2022-09-21T11:06:57.788Z,50.70
2022-09-21T11:07:58.295Z,50.50
2022-09-21T11:08:58.862Z,51.90
2022-09-21T11:09:59.372Z,51.70
2022-09-21T11:10:59.879Z,53.10
2022-09-21T11:12:00.387Z,53.40
2022-09-21T11:13:00.897Z,57.50
2022-09-21T11:14:01.484Z,56.10
2022-09-21T11:15:01.991Z,56.50
2022-09-21T11:16:02.645Z,57.10
2022-09-21T11:17:03.236Z,57.60
2022-09-21T11:18:03.746Z,58.40
2022-09-21T11:19:04.380Z,61.40
2022-09-21T11:20:04.926Z,62.00
2022-09-21T11:21:05.461Z,63.40
2022-09-21T11:22:05.968Z,64.80
2022-09-21T11:23:06.475Z,60.60
2022-09-21T11:24:07.034Z,59.40
2022-09-21T11:25:07.545Z,60.10
2022-09-21T11:26:08.050Z,58.90
2022-09-21T11:27:08.552Z,57.60
2022-09-21T11:28:09.064Z,59.40
2022-09-21T11:29:09.609Z,64.00
2022-09-21T11:30:10.121Z,60.90
2022-09-21T11:31:10.696Z,61.40
2022-09-21T11:32:11.237Z,62.60
2022-09-21T11:33:11.798Z,61.30
2022-09-21T11:34:12.824Z,60.30
2022-09-21T11:35:22.028Z,58.50
2022-09-21T11:36:13.537Z,59.80
2022-09-21T11:37:14.049Z,58.90
2022-09-21T11:38:14.558Z,55.70
2022-09-21T11:39:15.098Z,58.20
2022-09-21T11:40:15.678Z,56.90
2022-09-21T11:41:16.229Z,56.70
2022-09-21T11:42:29.787Z,58.20
2022-09-21T11:43:18.640Z,58.70
2022-09-21T11:44:19.195Z,58.30
2022-09-21T11:45:18.849Z,60.10
2022-09-21T11:46:19.387Z,60.30
2022-09-21T11:47:19.896Z,61.00
2022-09-21T11:48:20.406Z,60.00
2022-09-21T11:49:20.955Z,60.00
2022-09-21T11:50:36.624Z,59.60
2022-09-21T11:51:22.347Z,57.70
2022-09-21T11:52:22.850Z,57.90
2022-09-21T11:53:23.370Z,52.10
2022-09-21T11:54:23.952Z,49.70
2022-09-21T11:55:24.468Z,48.80
2022-09-21T11:56:24.970Z,47.60
2022-09-21T11:57:25.493Z,43.60
2022-09-21T11:58:25.996Z,43.10
2022-09-21T11:59:26.559Z,42.00
2022-09-21T12:00:27.069Z,39.10
2022-09-21T12:01:27.576Z,38.00
2022-09-21T12:02:28.319Z,37.20
2022-09-21T12:03:29.015Z,37.00
2022-09-21T12:04:29.574Z,36.40
2022-09-21T12:05:30.076Z,36.80
2022-09-21T12:06:30.617Z,37.90
2022-09-21T12:07:31.134Z,37.00
2022-09-21T12:08:31.669Z,37.00
2022-09-21T12:09:32.236Z,36.70
2022-09-21T12:10:32.746Z,36.00
2022-09-21T12:11:33.259Z,35.50
2022-09-21T12:12:33.765Z,35.00
2022-09-21T12:13:34.283Z,34.80
2022-09-21T12:14:34.912Z,34.20
2022-09-21T12:15:35.454Z,35.00
2022-09-21T12:16:36.032Z,34.80
2022-09-21T12:17:36.611Z,35.20
2022-09-21T12:18:37.129Z,36.20
2022-09-21T12:19:37.715Z,35.10
2022-09-21T12:20:38.223Z,37.10
2022-09-21T12:21:38.758Z,38.80
2022-09-21T12:22:39.267Z,36.40
2022-09-21T12:23:39.775Z,37.20
2022-09-21T12:24:40.325Z,36.50
2022-09-21T12:25:40.825Z,36.50
2022-09-21T12:26:41.331Z,36.00
2022-09-21T12:27:41.836Z,37.00
2022-09-21T12:28:42.670Z,35.70
2022-09-21T12:29:43.218Z,36.20
2022-09-21T12:30:43.795Z,36.50
2022-09-21T12:31:44.328Z,36.80
2022-09-21T12:32:46.742Z,38.30
2022-09-21T12:33:45.755Z,38.70
2022-09-21T12:34:46.411Z,38.50
2022-09-21T12:35:47.005Z,38.90
2022-09-21T12:36:47.555Z,40.70
2022-09-21T12:37:48.061Z,41.50
2022-09-21T12:38:48.570Z,44.10
2022-09-21T12:39:49.114Z,43.70
2022-09-21T12:40:49.687Z,46.00
2022-09-21T12:41:50.250Z,46.10
2022-09-21T12:42:50.765Z,45.80
2022-09-21T12:43:51.271Z,48.50
2022-09-21T12:44:51.875Z,47.40
2022-09-21T12:45:52.492Z,49.00
2022-09-21T12:46:53.659Z,49.10
2022-09-21T12:47:53.702Z,50.50
2022-09-21T12:48:54.209Z,51.00
2022-09-21T12:49:54.753Z,50.20
2022-09-21T12:50:55.266Z,53.10
2022-09-21T12:51:55.799Z,53.60
2022-09-21T12:52:56.326Z,57.10
2022-09-21T12:53:56.836Z,57.40
2022-09-21T12:54:57.628Z,60.40
2022-09-21T12:55:58.147Z,61.70
2022-09-21T12:56:58.659Z,61.50
2022-09-21T12:58:14.555Z,64.50
2022-09-21T12:59:00.024Z,63.30
2022-09-21T13:00:00.569Z,60.50
2022-09-21T13:01:01.196Z,58.10
2022-09-21T13:02:01.970Z,55.10
2022-09-21T13:03:05.902Z,50.90
2022-09-21T13:04:03.410Z,49.30
2022-09-21T13:05:03.963Z,48.40
2022-09-21T13:06:04.474Z,47.50
2022-09-21T13:07:05.007Z,46.10
2022-09-21T13:08:05.522Z,47.30
2022-09-21T13:09:08.563Z,46.20
2022-09-21T13:10:06.608Z,45.40
2022-09-21T13:11:07.111Z,43.40
2022-09-21T13:12:07.625Z,40.00
2022-09-21T13:13:08.134Z,37.00
2022-09-21T13:14:08.650Z,35.30